createdAt,value
2019-01-21T00:01:38.755Z,13.30
2019-01-21T00:06:57.102Z,12.57
2019-01-21T00:12:16.152Z,12.60
2019-01-21T00:17:34.700Z,12.70
2019-01-21T00:22:52.839Z,12.50
2019-01-21T00:28:11.417Z,11.83
2019-01-21T00:33:29.985Z,11.97
2019-01-21T00:38:48.464Z,11.90
2019-01-21T00:44:07.439Z,12.07
2019-01-21T00:49:26.081Z,11.80
2019-01-21T00:54:44.399Z,12.67
2019-01-21T01:00:04.804Z,12.83
2019-01-21T01:05:23.275Z,11.73
2019-01-21T01:10:41.941Z,12.77
2019-01-21T01:16:00.273Z,12.33
2019-01-21T01:21:18.795Z,12.20
2019-01-21T01:26:38.005Z,12.70
2019-01-21T01:31:56.564Z,12.83
2019-01-21T01:37:14.670Z,12.27
2019-01-21T01:42:32.894Z,12.13
2019-01-21T01:47:53.092Z,13.10
2019-01-21T01:53:11.903Z,11.77
2019-01-21T01:58:30.757Z,12.00
2019-01-21T02:03:48.927Z,12.83
2019-01-21T02:09:07.454Z,11.83
2019-01-21T02:14:25.936Z,12.20
2019-01-21T02:19:44.342Z,12.47
2019-01-21T02:25:02.720Z,12.83
2019-01-21T02:30:26.404Z,12.93
2019-01-21T02:35:57.805Z,13.83
2019-01-21T02:41:19.594Z,14.07
2019-01-21T02:46:43.929Z,24.57
2019-01-21T02:52:22.112Z,18.40
2019-01-21T02:58:03.370Z,14.80
2019-01-21T03:03:41.455Z,13.43
2019-01-21T03:09:22.803Z,15.00
2019-01-21T03:14:48.799Z,13.93
2019-01-21T03:20:22.856Z,15.23
2019-01-21T03:26:03.803Z,14.53
2019-01-21T03:31:27.721Z,13.50
2019-01-21T03:37:10.469Z,15.63
2019-01-21T03:42:45.828Z,13.87
2019-01-21T03:48:16.738Z,16.90
2019-01-21T03:53:43.946Z,14.37
2019-01-21T03:59:18.826Z,13.87
2019-01-21T04:04:59.643Z,12.20
2019-01-21T04:10:38.393Z,12.93
2019-01-21T04:16:06.404Z,13.13
2019-01-21T04:21:53.996Z,13.03
2019-01-21T04:27:22.561Z,12.63
2019-01-21T04:32:57.120Z,13.87
2019-01-21T04:38:34.864Z,14.23
2019-01-21T04:44:07.261Z,14.60
2019-01-21T04:49:44.145Z,13.80
2019-01-21T04:55:24.842Z,14.47
2019-01-21T05:01:18.287Z,12.90
2019-01-21T05:07:14.749Z,13.73
2019-01-21T05:12:44.270Z,20.87
2019-01-21T05:18:22.522Z,17.00
2019-01-21T05:23:59.336Z,14.33
2019-01-21T05:29:37.167Z,18.43
2019-01-21T05:35:08.633Z,18.67
2019-01-21T05:40:49.822Z,18.03
2019-01-21T05:46:35.546Z,16.07
2019-01-21T05:52:10.085Z,15.37
2019-01-21T05:57:48.886Z,17.20
2019-01-21T06:03:35.917Z,12.77
2019-01-21T06:09:12.968Z,19.13
2019-01-21T06:15:09.432Z,12.93
2019-01-21T06:21:03.523Z,12.70
2019-01-21T06:26:47.763Z,23.97
2019-01-21T06:32:28.355Z,13.50
2019-01-21T06:37:58.491Z,14.47
2019-01-21T06:43:36.765Z,14.00
2019-01-21T06:49:21.943Z,15.00
2019-01-21T06:54:47.974Z,14.77
2019-01-21T07:00:14.008Z,13.77
2019-01-21T07:05:40.552Z,13.37
2019-01-21T07:11:28.214Z,13.27
2019-01-21T07:17:08.205Z,20.37
2019-01-21T07:22:46.165Z,20.90
2019-01-21T07:28:11.011Z,38.47
2019-01-21T07:34:01.308Z,41.37
2019-01-21T07:39:45.280Z,14.60
2019-01-21T07:45:21.044Z,13.40
2019-01-21T07:51:00.856Z,15.07
2019-01-21T07:56:41.766Z,13.57
2019-01-21T08:02:10.545Z,12.80
2019-01-21T08:08:10.855Z,12.37
2019-01-21T08:13:40.618Z,11.87
2019-01-21T08:19:13.323Z,12.33
2019-01-21T08:25:00.682Z,13.93
2019-01-21T08:30:45.119Z,12.97
2019-01-21T08:36:23.584Z,13.40
2019-01-21T08:41:46.515Z,13.80
2019-01-21T08:47:16.188Z,13.27
2019-01-21T08:53:06.508Z,12.60
2019-01-21T08:58:38.408Z,13.77
2019-01-21T09:04:08.526Z,13.17
2019-01-21T09:09:30.755Z,13.10
2019-01-21T09:15:14.839Z,12.83
2019-01-21T09:20:52.852Z,12.57
2019-01-21T09:26:29.590Z,13.20
2019-01-21T09:31:52.099Z,14.47
2019-01-21T09:37:39.215Z,12.97
2019-01-21T09:43:23.495Z,12.80
2019-01-21T09:48:41.683Z,13.17
2019-01-21T09:53:59.779Z,14.03
2019-01-21T09:59:18.826Z,14.00
2019-01-21T10:04:48.335Z,13.87
2019-01-21T10:10:13.060Z,14.20
2019-01-21T10:15:51.207Z,15.27
2019-01-21T10:21:35.350Z,15.73
2019-01-21T10:27:05.183Z,15.77
2019-01-21T10:32:46.891Z,15.83
2019-01-21T10:38:13.578Z,16.73
2019-01-21T10:43:43.351Z,17.47
2019-01-21T10:49:33.663Z,18.13
2019-01-21T10:55:10.648Z,18.53
2019-01-21T11:00:47.166Z,17.37
2019-01-21T11:06:20.697Z,15.60
2019-01-21T11:12:13.815Z,15.33
2019-01-21T11:17:41.029Z,17.57
2019-01-21T11:23:02.914Z,18.53
2019-01-21T11:28:45.086Z,18.83
2019-01-21T11:34:29.489Z,20.50
2019-01-21T11:40:07.703Z,20.80
2019-01-21T11:45:38.771Z,21.33
2019-01-21T11:51:16.727Z,22.00
2019-01-21T11:56:42.987Z,21.20
2019-01-21T12:02:20.941Z,21.50
2019-01-21T12:08:05.696Z,22.13
2019-01-21T12:13:30.798Z,21.37
2019-01-21T12:18:55.531Z,26.07
2019-01-21T12:24:33.434Z,24.57
2019-01-21T12:29:58.495Z,24.37
2019-01-21T12:35:45.580Z,26.00
2019-01-21T12:41:35.662Z,24.30
2019-01-21T12:47:08.331Z,22.07
2019-01-21T12:52:32.746Z,22.10
2019-01-21T12:58:03.940Z,22.67
2019-01-21T13:03:34.199Z,23.43
2019-01-21T13:09:05.652Z,23.13
2019-01-21T13:14:49.649Z,25.40
2019-01-21T13:20:16.910Z,23.90
2019-01-21T13:25:54.945Z,24.57
2019-01-21T13:31:22.509Z,24.67
2019-01-21T13:36:48.562Z,24.37
2019-01-21T13:42:09.806Z,23.87
2019-01-21T13:47:46.367Z,24.00
2019-01-21T13:53:10.926Z,26.83
2019-01-21T13:58:42.284Z,26.70
2019-01-21T14:04:26.488Z,24.80
2019-01-21T14:10:06.114Z,22.93
2019-01-21T14:15:44.149Z,24.80
2019-01-21T14:21:25.201Z,26.40
2019-01-21T14:27:02.628Z,26.33
2019-01-21T14:32:30.737Z,22.27
2019-01-21T14:37:58.140Z,24.93
2019-01-21T14:43:35.738Z,21.53
2019-01-21T14:49:13.758Z,23.73
2019-01-21T14:54:56.658Z,20.93
2019-01-21T15:00:47.448Z,28.77
2019-01-21T15:06:23.396Z,47.60
2019-01-21T15:11:45.521Z,59.07
2019-01-21T15:17:12.637Z,28.70
2019-01-21T15:22:56.984Z,27.50
2019-01-21T15:28:33.974Z,23.03
2019-01-21T15:34:24.460Z,28.87
2019-01-21T15:40:08.802Z,23.27
2019-01-21T15:45:40.500Z,20.10
2019-01-21T15:51:17.506Z,21.67
2019-01-21T15:57:01.867Z,22.83
2019-01-21T16:02:34.382Z,22.00
2019-01-21T16:08:04.539Z,21.67
2019-01-21T16:13:32.178Z,23.67
2019-01-21T16:18:55.866Z,22.80
2019-01-21T16:24:40.119Z,21.07
2019-01-21T16:30:02.219Z,25.47
2019-01-21T16:35:34.436Z,22.13
2019-01-21T16:41:16.211Z,22.40
2019-01-21T16:46:34.768Z,21.63
2019-01-21T16:51:54.416Z,36.40
2019-01-21T16:57:13.040Z,33.77
2019-01-21T17:02:31.806Z,26.87
2019-01-21T17:07:50.455Z,26.40
2019-01-21T17:13:09.002Z,27.07
2019-01-21T17:18:28.329Z,28.60
2019-01-21T17:23:47.942Z,33.87
2019-01-21T17:29:06.813Z,33.47
2019-01-21T17:34:25.739Z,27.90
2019-01-21T17:39:43.967Z,33.93
2019-01-21T17:45:03.925Z,28.90
2019-01-21T17:50:22.507Z,27.77
2019-01-21T17:55:41.748Z,25.47
2019-01-21T18:01:00.736Z,27.70
2019-01-21T18:06:19.867Z,31.57
2019-01-21T18:11:41.394Z,31.13
2019-01-21T18:16:57.283Z,30.83
2019-01-21T18:22:15.862Z,26.77
2019-01-21T18:27:34.488Z,26.40
2019-01-21T18:32:53.643Z,37.53
2019-01-21T18:38:12.790Z,47.83
2019-01-21T18:43:31.544Z,73.57
2019-01-21T18:48:50.283Z,28.07
2019-01-21T18:54:08.782Z,31.83
2019-01-21T18:59:28.039Z,33.07
2019-01-21T19:04:46.975Z,26.73
2019-01-21T19:10:08.070Z,23.47
2019-01-21T19:15:27.933Z,24.43
2019-01-21T19:20:46.509Z,23.93
2019-01-21T19:26:04.941Z,24.30
2019-01-21T19:31:23.711Z,45.97
2019-01-21T19:36:43.347Z,26.40
2019-01-21T19:42:01.935Z,32.37
2019-01-21T19:47:20.936Z,26.10
2019-01-21T19:52:39.636Z,24.87
2019-01-21T19:57:58.738Z,23.30
2019-01-21T20:03:17.774Z,27.03
2019-01-21T20:08:36.488Z,25.83
2019-01-21T20:13:54.946Z,24.57
2019-01-21T20:19:14.454Z,23.33
2019-01-21T20:24:33.456Z,26.93
2019-01-21T20:29:52.782Z,23.80
2019-01-21T20:35:11.897Z,23.03
2019-01-21T20:40:30.883Z,25.70
2019-01-21T20:45:49.889Z,26.57
2019-01-21T20:51:08.845Z,26.30
2019-01-21T20:56:28.443Z,25.10
2019-01-21T21:01:47.076Z,44.80
2019-01-21T21:07:05.933Z,47.50
2019-01-21T21:12:25.900Z,26.93
2019-01-21T21:17:43.481Z,97.80
2019-01-21T21:23:01.692Z,175.07
2019-01-21T21:28:19.858Z,48.47
2019-01-21T21:33:39.405Z,70.30
2019-01-21T21:38:58.456Z,111.47
2019-01-21T21:44:16.891Z,85.67
2019-01-21T21:49:35.461Z,34.30
2019-01-21T21:54:53.672Z,28.13
2019-01-21T22:00:14.304Z,22.83
2019-01-21T22:05:32.663Z,25.10
2019-01-21T22:10:51.514Z,25.70
2019-01-21T22:16:10.058Z,25.67
2019-01-21T22:21:28.675Z,23.73
2019-01-21T22:26:47.701Z,33.13
2019-01-21T22:32:08.152Z,25.10
2019-01-21T22:37:27.498Z,21.87
2019-01-21T22:42:46.180Z,22.77
2019-01-21T22:48:04.838Z,25.73
2019-01-21T22:53:23.600Z,21.57
2019-01-21T22:58:44.341Z,24.43
2019-01-21T23:04:02.931Z,22.10
2019-01-21T23:09:21.478Z,22.47
2019-01-21T23:14:41.900Z,24.00
2019-01-21T23:20:02.095Z,20.03
2019-01-21T23:25:20.350Z,22.87
2019-01-21T23:30:38.498Z,24.30
2019-01-21T23:35:57.325Z,22.20
2019-01-21T23:41:16.065Z,21.10
2019-01-21T23:46:34.879Z,19.60
2019-01-21T23:51:54.200Z,20.77
2019-01-21T23:57:13.284Z,18.23
